sensor_id;sensor_type;location;lat;lon;timestamp;temperature;humidity
16781;DHT22;8507;50.056;8.248;2023-03-16T00:02:02;0.90;99.90
16781;DHT22;8507;50.056;8.248;2023-03-16T00:04:28;0.90;99.90
16781;DHT22;8507;50.056;8.248;2023-03-16T00:06:55;0.80;99.90
16781;DHT22;8507;50.056;8.248;2023-03-16T00:09:20;0.70;99.90
16781;DHT22;8507;50.056;8.248;2023-03-16T00:11:46;0.70;99.90
16781;DHT22;8507;50.056;8.248;2023-03-16T00:14:11;0.60;99.90
16781;DHT22;8507;50.056;8.248;2023-03-16T00:16:37;0.60;99.90
16781;DHT22;8507;50.056;8.248;2023-03-16T00:19:04;0.50;99.90
16781;DHT22;8507;50.056;8.248;2023-03-16T00:21:30;0.50;99.90
16781;DHT22;8507;50.056;8.248;2023-03-16T00:23:59;0.50;99.90
16781;DHT22;8507;50.056;8.248;2023-03-16T00:26:25;0.50;99.90
16781;DHT22;8507;50.056;8.248;2023-03-16T00:28:50;0.50;99.90
16781;DHT22;8507;50.056;8.248;2023-03-16T00:31:19;0.60;99.90
16781;DHT22;8507;50.056;8.248;2023-03-16T00:33:44;0.60;99.90
16781;DHT22;8507;50.056;8.248;2023-03-16T00:36:10;0.50;99.90
16781;DHT22;8507;50.056;8.248;2023-03-16T00:38:40;0.50;99.90
16781;DHT22;8507;50.056;8.248;2023-03-16T00:41:10;0.50;99.90
16781;DHT22;8507;50.056;8.248;2023-03-16T00:43:39;0.60;99.90
16781;DHT22;8507;50.056;8.248;2023-03-16T00:46:06;0.70;99.90
16781;DHT22;8507;50.056;8.248;2023-03-16T00:48:33;0.80;99.90
16781;DHT22;8507;50.056;8.248;2023-03-16T00:51:04;0.80;99.90
16781;DHT22;8507;50.056;8.248;2023-03-16T00:53:32;0.70;99.90
16781;DHT22;8507;50.056;8.248;2023-03-16T00:55:58;0.60;99.90
16781;DHT22;8507;50.056;8.248;2023-03-16T00:58:24;0.60;99.90
16781;DHT22;8507;50.056;8.248;2023-03-16T01:00:50;0.60;99.90
16781;DHT22;8507;50.056;8.248;2023-03-16T01:03:17;0.60;99.90
16781;DHT22;8507;50.056;8.248;2023-03-16T01:05:43;0.60;99.90
16781;DHT22;8507;50.056;8.248;2023-03-16T01:08:08;0.60;99.90
16781;DHT22;8507;50.056;8.248;2023-03-16T01:10:35;0.60;99.90
16781;DHT22;8507;50.056;8.248;2023-03-16T01:13:01;0.70;99.90
16781;DHT22;8507;50.056;8.248;2023-03-16T01:15:28;0.80;99.90
16781;DHT22;8507;50.056;8.248;2023-03-16T01:17:54;0.90;99.90
16781;DHT22;8507;50.056;8.248;2023-03-16T01:20:19;0.80;99.90
16781;DHT22;8507;50.056;8.248;2023-03-16T01:22:45;0.90;99.90
16781;DHT22;8507;50.056;8.248;2023-03-16T01:25:11;1.00;99.90
16781;DHT22;8507;50.056;8.248;2023-03-16T01:27:37;1.00;99.90
16781;DHT22;8507;50.056;8.248;2023-03-16T01:30:04;1.10;99.90
16781;DHT22;8507;50.056;8.248;2023-03-16T01:32:30;1.00;99.90
16781;DHT22;8507;50.056;8.248;2023-03-16T01:34:56;1.00;99.90
16781;DHT22;8507;50.056;8.248;2023-03-16T01:37:21;1.00;99.90
16781;DHT22;8507;50.056;8.248;2023-03-16T01:39:48;1.00;99.90
16781;DHT22;8507;50.056;8.248;2023-03-16T01:42:14;1.10;99.90
16781;DHT22;8507;50.056;8.248;2023-03-16T01:44:55;1.30;99.90
16781;DHT22;8507;50.056;8.248;2023-03-16T01:47:21;1.30;99.90
16781;DHT22;8507;50.056;8.248;2023-03-16T01:49:49;1.40;99.90
16781;DHT22;8507;50.056;8.248;2023-03-16T01:52:22;1.40;99.90
16781;DHT22;8507;50.056;8.248;2023-03-16T01:54:57;1.40;99.90
16781;DHT22;8507;50.056;8.248;2023-03-16T01:57:27;1.10;99.90
16781;DHT22;8507;50.056;8.248;2023-03-16T02:02:32;0.90;99.90
16781;DHT22;8507;50.056;8.248;2023-03-16T02:05:12;0.70;99.90
16781;DHT22;8507;50.056;8.248;2023-03-16T02:07:49;0.70;99.90
16781;DHT22;8507;50.056;8.248;2023-03-16T02:10:17;0.80;99.90
16781;DHT22;8507;50.056;8.248;2023-03-16T02:12:43;0.80;99.90
16781;DHT22;8507;50.056;8.248;2023-03-16T02:15:10;0.90;99.90
16781;DHT22;8507;50.056;8.248;2023-03-16T02:17:36;0.90;99.90
16781;DHT22;8507;50.056;8.248;2023-03-16T02:20:08;0.80;99.90
16781;DHT22;8507;50.056;8.248;2023-03-16T02:22:46;0.70;99.90
16781;DHT22;8507;50.056;8.248;2023-03-16T02:25:14;0.60;99.90
16781;DHT22;8507;50.056;8.248;2023-03-16T02:28:06;0.50;99.90
16781;DHT22;8507;50.056;8.248;2023-03-16T02:30:33;0.40;99.90
16781;DHT22;8507;50.056;8.248;2023-03-16T02:32:58;0.40;99.90
16781;DHT22;8507;50.056;8.248;2023-03-16T02:35:24;0.40;99.90
16781;DHT22;8507;50.056;8.248;2023-03-16T02:37:50;0.40;99.90
16781;DHT22;8507;50.056;8.248;2023-03-16T02:40:26;0.40;99.90
16781;DHT22;8507;50.056;8.248;2023-03-16T02:42:59;0.40;99.90
16781;DHT22;8507;50.056;8.248;2023-03-16T02:48:08;0.50;99.90
16781;DHT22;8507;50.056;8.248;2023-03-16T02:50:43;0.60;99.90
16781;DHT22;8507;50.056;8.248;2023-03-16T02:53:11;0.80;99.90
16781;DHT22;8507;50.056;8.248;2023-03-16T02:55:37;0.80;99.90
16781;DHT22;8507;50.056;8.248;2023-03-16T02:58:03;0.80;99.90
16781;DHT22;8507;50.056;8.248;2023-03-16T03:00:28;0.80;99.90
16781;DHT22;8507;50.056;8.248;2023-03-16T03:02:54;0.80;99.90
16781;DHT22;8507;50.056;8.248;2023-03-16T03:05:19;0.80;99.90
16781;DHT22;8507;50.056;8.248;2023-03-16T03:07:46;0.90;99.90
16781;DHT22;8507;50.056;8.248;2023-03-16T03:10:11;0.90;99.90
16781;DHT22;8507;50.056;8.248;2023-03-16T03:12:37;0.70;99.90
16781;DHT22;8507;50.056;8.248;2023-03-16T03:15:03;0.80;99.90
16781;DHT22;8507;50.056;8.248;2023-03-16T03:17:28;0.80;99.90
16781;DHT22;8507;50.056;8.248;2023-03-16T03:19:55;0.80;99.90
16781;DHT22;8507;50.056;8.248;2023-03-16T03:22:21;0.80;99.90
16781;DHT22;8507;50.056;8.248;2023-03-16T03:24:46;0.90;99.90
16781;DHT22;8507;50.056;8.248;2023-03-16T03:27:12;1.00;99.90
16781;DHT22;8507;50.056;8.248;2023-03-16T03:29:38;1.00;99.90
16781;DHT22;8507;50.056;8.248;2023-03-16T03:32:03;1.00;99.90
16781;DHT22;8507;50.056;8.248;2023-03-16T03:34:29;1.00;99.90
16781;DHT22;8507;50.056;8.248;2023-03-16T03:36:56;1.00;99.90
16781;DHT22;8507;50.056;8.248;2023-03-16T03:39:22;1.00;99.90
16781;DHT22;8507;50.056;8.248;2023-03-16T03:41:48;1.00;99.90
16781;DHT22;8507;50.056;8.248;2023-03-16T03:44:13;0.90;99.90
16781;DHT22;8507;50.056;8.248;2023-03-16T03:46:39;0.90;99.90
16781;DHT22;8507;50.056;8.248;2023-03-16T03:49:04;1.00;99.90
16781;DHT22;8507;50.056;8.248;2023-03-16T03:51:31;0.90;99.90
16781;DHT22;8507;50.056;8.248;2023-03-16T03:53:57;1.00;99.90
16781;DHT22;8507;50.056;8.248;2023-03-16T03:56:23;0.80;99.90
16781;DHT22;8507;50.056;8.248;2023-03-16T03:58:49;0.90;99.90
16781;DHT22;8507;50.056;8.248;2023-03-16T04:01:14;0.90;99.90
16781;DHT22;8507;50.056;8.248;2023-03-16T04:03:40;0.90;99.90
16781;DHT22;8507;50.056;8.248;2023-03-16T04:06:05;0.90;99.90
16781;DHT22;8507;50.056;8.248;2023-03-16T04:08:34;0.80;99.90
16781;DHT22;8507;50.056;8.248;2023-03-16T04:11:00;0.80;99.90
16781;DHT22;8507;50.056;8.248;2023-03-16T04:13:26;0.70;99.90
16781;DHT22;8507;50.056;8.248;2023-03-16T04:16:04;0.80;99.90
16781;DHT22;8507;50.056;8.248;2023-03-16T04:18:30;0.80;99.90
16781;DHT22;8507;50.056;8.248;2023-03-16T04:21:06;0.90;99.90
16781;DHT22;8507;50.056;8.248;2023-03-16T04:23:33;1.00;99.90
16781;DHT22;8507;50.056;8.248;2023-03-16T04:25:59;1.00;99.90
16781;DHT22;8507;50.056;8.248;2023-03-16T04:28:25;1.10;99.90
16781;DHT22;8507;50.056;8.248;2023-03-16T04:30:51;1.10;99.90
16781;DHT22;8507;50.056;8.248;2023-03-16T04:33:19;1.10;99.90
16781;DHT22;8507;50.056;8.248;2023-03-16T04:35:46;1.00;99.90
16781;DHT22;8507;50.056;8.248;2023-03-16T04:38:12;0.90;99.90
16781;DHT22;8507;50.056;8.248;2023-03-16T04:40:37;0.80;99.90
16781;DHT22;8507;50.056;8.248;2023-03-16T04:43:03;0.80;99.90
16781;DHT22;8507;50.056;8.248;2023-03-16T04:45:29;0.80;99.90
16781;DHT22;8507;50.056;8.248;2023-03-16T04:47:54;0.70;99.90
16781;DHT22;8507;50.056;8.248;2023-03-16T04:50:21;0.70;99.90
16781;DHT22;8507;50.056;8.248;2023-03-16T04:52:47;0.60;99.90
16781;DHT22;8507;50.056;8.248;2023-03-16T04:55:12;0.60;99.90
16781;DHT22;8507;50.056;8.248;2023-03-16T04:57:38;0.70;99.90
16781;DHT22;8507;50.056;8.248;2023-03-16T05:00:04;0.80;99.90
16781;DHT22;8507;50.056;8.248;2023-03-16T05:02:38;0.90;99.90
16781;DHT22;8507;50.056;8.248;2023-03-16T05:05:04;0.90;99.90
16781;DHT22;8507;50.056;8.248;2023-03-16T05:07:30;0.90;99.90
16781;DHT22;8507;50.056;8.248;2023-03-16T05:09:56;1.00;99.90
16781;DHT22;8507;50.056;8.248;2023-03-16T05:12:22;1.10;99.90
16781;DHT22;8507;50.056;8.248;2023-03-16T05:14:47;1.20;99.90
16781;DHT22;8507;50.056;8.248;2023-03-16T05:17:13;1.20;99.90
16781;DHT22;8507;50.056;8.248;2023-03-16T05:19:39;1.30;99.90
16781;DHT22;8507;50.056;8.248;2023-03-16T05:22:04;1.30;99.90
16781;DHT22;8507;50.056;8.248;2023-03-16T05:24:31;1.20;99.90
16781;DHT22;8507;50.056;8.248;2023-03-16T05:26:56;1.30;99.90
16781;DHT22;8507;50.056;8.248;2023-03-16T05:29:22;1.40;99.90
16781;DHT22;8507;50.056;8.248;2023-03-16T05:31:47;1.40;99.90
16781;DHT22;8507;50.056;8.248;2023-03-16T05:34:14;1.50;99.90
16781;DHT22;8507;50.056;8.248;2023-03-16T05:36:39;1.50;99.90
16781;DHT22;8507;50.056;8.248;2023-03-16T05:39:05;1.40;99.90
16781;DHT22;8507;50.056;8.248;2023-03-16T05:41:32;1.20;99.90
16781;DHT22;8507;50.056;8.248;2023-03-16T05:43:58;1.10;99.90
16781;DHT22;8507;50.056;8.248;2023-03-16T05:46:24;1.30;99.90
16781;DHT22;8507;50.056;8.248;2023-03-16T05:48:49;1.30;99.90
16781;DHT22;8507;50.056;8.248;2023-03-16T05:51:15;1.50;99.90
16781;DHT22;8507;50.056;8.248;2023-03-16T05:53:41;1.60;99.90
16781;DHT22;8507;50.056;8.248;2023-03-16T05:56:07;1.80;99.90
16781;DHT22;8507;50.056;8.248;2023-03-16T05:58:32;1.90;99.90
16781;DHT22;8507;50.056;8.248;2023-03-16T06:01:01;1.90;99.90
16781;DHT22;8507;50.056;8.248;2023-03-16T06:03:27;2.00;99.90
16781;DHT22;8507;50.056;8.248;2023-03-16T06:05:52;1.70;99.90
16781;DHT22;8507;50.056;8.248;2023-03-16T06:08:18;1.90;99.90
16781;DHT22;8507;50.056;8.248;2023-03-16T06:10:45;2.00;99.90
16781;DHT22;8507;50.056;8.248;2023-03-16T06:13:12;2.20;99.90
16781;DHT22;8507;50.056;8.248;2023-03-16T06:15:37;2.30;99.90
16781;DHT22;8507;50.056;8.248;2023-03-16T06:18:03;2.40;99.90
16781;DHT22;8507;50.056;8.248;2023-03-16T06:20:28;2.50;99.90
16781;DHT22;8507;50.056;8.248;2023-03-16T06:22:54;2.30;99.90
16781;DHT22;8507;50.056;8.248;2023-03-16T06:25:19;2.50;99.90
16781;DHT22;8507;50.056;8.248;2023-03-16T06:27:45;2.80;99.90
16781;DHT22;8507;50.056;8.248;2023-03-16T06:30:12;3.00;99.90
16781;DHT22;8507;50.056;8.248;2023-03-16T06:32:38;3.30;99.90
16781;DHT22;8507;50.056;8.248;2023-03-16T06:35:06;3.40;99.90
16781;DHT22;8507;50.056;8.248;2023-03-16T06:37:32;3.60;99.90
16781;DHT22;8507;50.056;8.248;2023-03-16T06:39:58;3.40;99.90
16781;DHT22;8507;50.056;8.248;2023-03-16T06:42:24;3.00;99.90
16781;DHT22;8507;50.056;8.248;2023-03-16T06:44:49;3.10;99.90
16781;DHT22;8507;50.056;8.248;2023-03-16T06:47:16;3.00;99.90
16781;DHT22;8507;50.056;8.248;2023-03-16T06:49:42;3.20;99.90
16781;DHT22;8507;50.056;8.248;2023-03-16T06:52:07;3.10;99.90
16781;DHT22;8507;50.056;8.248;2023-03-16T06:54:35;3.40;99.90
16781;DHT22;8507;50.056;8.248;2023-03-16T06:57:02;3.30;99.90
16781;DHT22;8507;50.056;8.248;2023-03-16T06:59:27;3.10;99.90
16781;DHT22;8507;50.056;8.248;2023-03-16T07:01:53;3.10;99.90
16781;DHT22;8507;50.056;8.248;2023-03-16T07:04:19;3.00;99.90
16781;DHT22;8507;50.056;8.248;2023-03-16T07:06:44;3.10;99.90
16781;DHT22;8507;50.056;8.248;2023-03-16T07:09:10;3.00;99.90
16781;DHT22;8507;50.056;8.248;2023-03-16T07:11:37;3.00;99.90
16781;DHT22;8507;50.056;8.248;2023-03-16T07:14:02;3.30;99.90
16781;DHT22;8507;50.056;8.248;2023-03-16T07:16:28;3.40;99.90
16781;DHT22;8507;50.056;8.248;2023-03-16T07:18:54;3.60;99.90
16781;DHT22;8507;50.056;8.248;2023-03-16T07:21:20;3.60;99.90
16781;DHT22;8507;50.056;8.248;2023-03-16T07:23:46;3.50;99.90
16781;DHT22;8507;50.056;8.248;2023-03-16T07:26:12;3.40;99.90
16781;DHT22;8507;50.056;8.248;2023-03-16T07:28:38;3.50;99.90
16781;DHT22;8507;50.056;8.248;2023-03-16T07:31:04;3.40;99.90
16781;DHT22;8507;50.056;8.248;2023-03-16T07:33:34;3.50;99.90
16781;DHT22;8507;50.056;8.248;2023-03-16T07:35:59;3.80;99.90
16781;DHT22;8507;50.056;8.248;2023-03-16T07:38:29;3.90;99.90
16781;DHT22;8507;50.056;8.248;2023-03-16T07:40:54;4.00;99.90
16781;DHT22;8507;50.056;8.248;2023-03-16T07:43:20;4.20;99.90
16781;DHT22;8507;50.056;8.248;2023-03-16T07:45:49;4.50;99.90
16781;DHT22;8507;50.056;8.248;2023-03-16T07:48:15;4.70;99.90
16781;DHT22;8507;50.056;8.248;2023-03-16T07:50:41;5.00;99.90
16781;DHT22;8507;50.056;8.248;2023-03-16T07:53:07;5.30;99.90
16781;DHT22;8507;50.056;8.248;2023-03-16T07:55:32;5.20;99.90
16781;DHT22;8507;50.056;8.248;2023-03-16T07:58:01;5.60;99.90
16781;DHT22;8507;50.056;8.248;2023-03-16T08:00:27;6.00;99.90
16781;DHT22;8507;50.056;8.248;2023-03-16T08:02:52;6.20;99.90
16781;DHT22;8507;50.056;8.248;2023-03-16T08:05:19;6.20;99.90
16781;DHT22;8507;50.056;8.248;2023-03-16T08:07:45;6.30;99.90
16781;DHT22;8507;50.056;8.248;2023-03-16T08:10:11;6.30;99.90
16781;DHT22;8507;50.056;8.248;2023-03-16T08:12:36;6.20;99.90
16781;DHT22;8507;50.056;8.248;2023-03-16T08:15:02;5.90;99.90
16781;DHT22;8507;50.056;8.248;2023-03-16T08:17:30;5.80;99.90
16781;DHT22;8507;50.056;8.248;2023-03-16T08:19:55;5.80;99.90
16781;DHT22;8507;50.056;8.248;2023-03-16T08:22:21;5.90;99.90
16781;DHT22;8507;50.056;8.248;2023-03-16T08:24:48;6.50;99.90
16781;DHT22;8507;50.056;8.248;2023-03-16T08:27:13;6.80;99.90
16781;DHT22;8507;50.056;8.248;2023-03-16T08:29:40;7.30;99.90
16781;DHT22;8507;50.056;8.248;2023-03-16T08:32:06;7.20;99.90
16781;DHT22;8507;50.056;8.248;2023-03-16T08:34:31;6.80;99.90
16781;DHT22;8507;50.056;8.248;2023-03-16T08:36:58;7.10;99.90
16781;DHT22;8507;50.056;8.248;2023-03-16T08:39:24;7.10;99.90
16781;DHT22;8507;50.056;8.248;2023-03-16T08:41:50;6.80;99.90
16781;DHT22;8507;50.056;8.248;2023-03-16T08:44:16;7.40;99.90
16781;DHT22;8507;50.056;8.248;2023-03-16T08:46:42;7.90;99.90
16781;DHT22;8507;50.056;8.248;2023-03-16T08:49:07;7.80;99.90
16781;DHT22;8507;50.056;8.248;2023-03-16T08:51:33;8.10;99.90
16781;DHT22;8507;50.056;8.248;2023-03-16T08:53:58;8.40;99.90
16781;DHT22;8507;50.056;8.248;2023-03-16T08:56:24;8.40;99.90
16781;DHT22;8507;50.056;8.248;2023-03-16T08:58:50;7.80;99.90
16781;DHT22;8507;50.056;8.248;2023-03-16T09:01:17;8.20;99.90
16781;DHT22;8507;50.056;8.248;2023-03-16T09:03:44;8.30;99.90
16781;DHT22;8507;50.056;8.248;2023-03-16T09:06:14;7.60;99.90
16781;DHT22;8507;50.056;8.248;2023-03-16T09:08:40;7.30;99.90
16781;DHT22;8507;50.056;8.248;2023-03-16T09:11:11;6.90;99.90
16781;DHT22;8507;50.056;8.248;2023-03-16T09:13:39;7.60;99.90
16781;DHT22;8507;50.056;8.248;2023-03-16T09:16:06;7.80;99.90
16781;DHT22;8507;50.056;8.248;2023-03-16T09:18:32;8.00;99.90
16781;DHT22;8507;50.056;8.248;2023-03-16T09:21:00;7.50;99.90
16781;DHT22;8507;50.056;8.248;2023-03-16T09:23:28;7.50;99.90
16781;DHT22;8507;50.056;8.248;2023-03-16T09:26:00;7.70;99.90
16781;DHT22;8507;50.056;8.248;2023-03-16T09:28:26;7.30;99.90
16781;DHT22;8507;50.056;8.248;2023-03-16T09:30:56;8.00;99.90
16781;DHT22;8507;50.056;8.248;2023-03-16T09:33:25;8.10;99.90
16781;DHT22;8507;50.056;8.248;2023-03-16T09:35:53;7.30;99.90
16781;DHT22;8507;50.056;8.248;2023-03-16T09:38:20;7.50;99.90
16781;DHT22;8507;50.056;8.248;2023-03-16T09:40:47;7.80;99.90
16781;DHT22;8507;50.056;8.248;2023-03-16T09:48:44;9.10;99.90
16781;DHT22;8507;50.056;8.248;2023-03-16T09:51:21;8.80;99.90
16781;DHT22;8507;50.056;8.248;2023-03-16T09:53:53;8.70;99.90
16781;DHT22;8507;50.056;8.248;2023-03-16T09:56:29;8.80;99.90
16781;DHT22;8507;50.056;8.248;2023-03-16T09:58:58;9.40;99.90
16781;DHT22;8507;50.056;8.248;2023-03-16T10:09:48;10.30;99.90
16781;DHT22;8507;50.056;8.248;2023-03-16T10:12:17;10.70;99.90
16781;DHT22;8507;50.056;8.248;2023-03-16T10:15:05;11.00;99.90
16781;DHT22;8507;50.056;8.248;2023-03-16T10:17:42;9.90;99.90
16781;DHT22;8507;50.056;8.248;2023-03-16T10:20:18;10.00;99.90
16781;DHT22;8507;50.056;8.248;2023-03-16T10:22:47;10.80;99.90
16781;DHT22;8507;50.056;8.248;2023-03-16T10:25:42;11.10;99.90
16781;DHT22;8507;50.056;8.248;2023-03-16T10:28:14;11.10;99.90
16781;DHT22;8507;50.056;8.248;2023-03-16T10:30:40;11.20;99.90
16781;DHT22;8507;50.056;8.248;2023-03-16T10:33:27;11.20;99.90
16781;DHT22;8507;50.056;8.248;2023-03-16T10:38:40;11.30;99.90
16781;DHT22;8507;50.056;8.248;2023-03-16T10:43:57;10.80;99.90
16781;DHT22;8507;50.056;8.248;2023-03-16T10:46:25;10.80;99.90
16781;DHT22;8507;50.056;8.248;2023-03-16T10:48:54;10.90;99.90
16781;DHT22;8507;50.056;8.248;2023-03-16T10:51:26;11.10;99.90
16781;DHT22;8507;50.056;8.248;2023-03-16T10:53:52;11.30;99.90
16781;DHT22;8507;50.056;8.248;2023-03-16T10:56:22;11.40;99.90
16781;DHT22;8507;50.056;8.248;2023-03-16T10:58:48;11.50;99.90
16781;DHT22;8507;50.056;8.248;2023-03-16T11:01:24;11.70;99.90
16781;DHT22;8507;50.056;8.248;2023-03-16T11:03:53;11.80;99.90
16781;DHT22;8507;50.056;8.248;2023-03-16T11:06:31;11.30;99.90
16781;DHT22;8507;50.056;8.248;2023-03-16T11:09:41;11.30;99.90
16781;DHT22;8507;50.056;8.248;2023-03-16T11:14:45;11.90;99.90
16781;DHT22;8507;50.056;8.248;2023-03-16T11:17:18;12.10;99.90
16781;DHT22;8507;50.056;8.248;2023-03-16T11:19:56;12.00;99.90
16781;DHT22;8507;50.056;8.248;2023-03-16T11:22:25;11.60;99.90
16781;DHT22;8507;50.056;8.248;2023-03-16T11:25:08;11.70;99.90
16781;DHT22;8507;50.056;8.248;2023-03-16T11:28:02;11.80;99.90
16781;DHT22;8507;50.056;8.248;2023-03-16T11:30:34;12.00;99.90
16781;DHT22;8507;50.056;8.248;2023-03-16T11:33:10;12.10;99.90
16781;DHT22;8507;50.056;8.248;2023-03-16T11:41:00;12.30;99.90
16781;DHT22;8507;50.056;8.248;2023-03-16T11:43:52;12.80;99.90
16781;DHT22;8507;50.056;8.248;2023-03-16T11:46:30;12.90;99.90
16781;DHT22;8507;50.056;8.248;2023-03-16T11:49:12;13.20;99.90
16781;DHT22;8507;50.056;8.248;2023-03-16T12:00:45;13.00;99.90
16781;DHT22;8507;50.056;8.248;2023-03-16T12:05:58;12.80;99.90
16781;DHT22;8507;50.056;8.248;2023-03-16T12:14:39;12.80;99.90
16781;DHT22;8507;50.056;8.248;2023-03-16T12:17:14;13.20;99.90
16781;DHT22;8507;50.056;8.248;2023-03-16T12:19:44;13.50;99.90
16781;DHT22;8507;50.056;8.248;2023-03-16T12:24:50;13.10;99.90
16781;DHT22;8507;50.056;8.248;2023-03-16T12:27:20;13.20;99.90
16781;DHT22;8507;50.056;8.248;2023-03-16T12:32:46;13.80;99.90
16781;DHT22;8507;50.056;8.248;2023-03-16T12:35:38;13.70;99.90
16781;DHT22;8507;50.056;8.248;2023-03-16T12:38:19;13.20;99.90
16781;DHT22;8507;50.056;8.248;2023-03-16T12:43:27;13.40;99.90
16781;DHT22;8507;50.056;8.248;2023-03-16T12:46:16;13.90;99.90
16781;DHT22;8507;50.056;8.248;2023-03-16T12:48:48;13.90;99.90
16781;DHT22;8507;50.056;8.248;2023-03-16T12:51:16;14.00;99.90
16781;DHT22;8507;50.056;8.248;2023-03-16T12:53:45;13.20;99.90
16781;DHT22;8507;50.056;8.248;2023-03-16T12:56:19;13.30;99.90
16781;DHT22;8507;50.056;8.248;2023-03-16T12:58:55;13.50;99.90
16781;DHT22;8507;50.056;8.248;2023-03-16T13:01:26;14.10;99.90
16781;DHT22;8507;50.056;8.248;2023-03-16T13:04:17;14.40;99.90
16781;DHT22;8507;50.056;8.248;2023-03-16T13:06:51;13.90;99.90
16781;DHT22;8507;50.056;8.248;2023-03-16T13:09:27;13.30;99.90
16781;DHT22;8507;50.056;8.248;2023-03-16T13:11:53;13.50;99.90
16781;DHT22;8507;50.056;8.248;2023-03-16T13:14:39;13.90;99.90
16781;DHT22;8507;50.056;8.248;2023-03-16T13:19:59;14.10;99.90
16781;DHT22;8507;50.056;8.248;2023-03-16T13:22:27;14.20;99.90
16781;DHT22;8507;50.056;8.248;2023-03-16T13:25:13;14.00;99.90
16781;DHT22;8507;50.056;8.248;2023-03-16T13:27:45;14.10;99.90
16781;DHT22;8507;50.056;8.248;2023-03-16T13:32:47;14.30;99.90
16781;DHT22;8507;50.056;8.248;2023-03-16T13:35:15;13.80;99.90
16781;DHT22;8507;50.056;8.248;2023-03-16T13:37:42;13.60;99.90
16781;DHT22;8507;50.056;8.248;2023-03-16T13:40:22;13.70;99.90
16781;DHT22;8507;50.056;8.248;2023-03-16T13:42:50;13.60;99.90
16781;DHT22;8507;50.056;8.248;2023-03-16T13:45:32;13.70;99.90
16781;DHT22;8507;50.056;8.248;2023-03-16T13:47:59;13.70;99.90
16781;DHT22;8507;50.056;8.248;2023-03-16T13:50:26;13.50;99.90
16781;DHT22;8507;50.056;8.248;2023-03-16T13:52:58;13.20;99.90
16781;DHT22;8507;50.056;8.248;2023-03-16T13:55:36;13.10;99.90
16781;DHT22;8507;50.056;8.248;2023-03-16T13:58:03;13.20;99.90
16781;DHT22;8507;50.056;8.248;2023-03-16T14:00:35;13.40;99.90
16781;DHT22;8507;50.056;8.248;2023-03-16T14:03:18;13.40;99.90
16781;DHT22;8507;50.056;8.248;2023-03-16T14:05:46;13.50;99.90
16781;DHT22;8507;50.056;8.248;2023-03-16T14:08:26;13.60;99.90
16781;DHT22;8507;50.056;8.248;2023-03-16T14:10:53;13.70;99.90
16781;DHT22;8507;50.056;8.248;2023-03-16T14:15:54;13.60;99.90
16781;DHT22;8507;50.056;8.248;2023-03-16T14:18:23;13.60;99.90
16781;DHT22;8507;50.056;8.248;2023-03-16T14:20:53;13.70;99.90
16781;DHT22;8507;50.056;8.248;2023-03-16T14:23:24;13.70;99.90
16781;DHT22;8507;50.056;8.248;2023-03-16T14:25:52;13.70;99.90
16781;DHT22;8507;50.056;8.248;2023-03-16T14:28:21;13.80;99.90
16781;DHT22;8507;50.056;8.248;2023-03-16T14:30:53;13.80;99.90
16781;DHT22;8507;50.056;8.248;2023-03-16T14:33:27;13.90;99.90
16781;DHT22;8507;50.056;8.248;2023-03-16T14:35:55;13.90;99.90
16781;DHT22;8507;50.056;8.248;2023-03-16T14:38:31;13.90;99.90
16781;DHT22;8507;50.056;8.248;2023-03-16T14:41:20;14.10;99.90
16781;DHT22;8507;50.056;8.248;2023-03-16T14:43:50;14.10;99.90
16781;DHT22;8507;50.056;8.248;2023-03-16T14:46:32;14.30;99.90
16781;DHT22;8507;50.056;8.248;2023-03-16T14:49:25;14.10;99.90
16781;DHT22;8507;50.056;8.248;2023-03-16T14:51:54;14.10;99.90
16781;DHT22;8507;50.056;8.248;2023-03-16T14:54:22;14.10;99.90
16781;DHT22;8507;50.056;8.248;2023-03-16T14:57:02;14.20;99.90
16781;DHT22;8507;50.056;8.248;2023-03-16T14:59:30;14.20;99.90
16781;DHT22;8507;50.056;8.248;2023-03-16T15:01:56;14.20;99.90
16781;DHT22;8507;50.056;8.248;2023-03-16T15:04:28;14.10;99.90
16781;DHT22;8507;50.056;8.248;2023-03-16T15:06:56;14.00;99.90
16781;DHT22;8507;50.056;8.248;2023-03-16T15:09:36;14.00;99.90
16781;DHT22;8507;50.056;8.248;2023-03-16T15:12:02;13.80;99.90
16781;DHT22;8507;50.056;8.248;2023-03-16T15:14:28;13.60;99.90
16781;DHT22;8507;50.056;8.248;2023-03-16T15:17:12;13.60;99.90
16781;DHT22;8507;50.056;8.248;2023-03-16T15:19:37;13.60;99.90
16781;DHT22;8507;50.056;8.248;2023-03-16T15:22:03;13.60;99.90
16781;DHT22;8507;50.056;8.248;2023-03-16T15:24:29;13.50;99.90
16781;DHT22;8507;50.056;8.248;2023-03-16T15:26:57;13.40;99.90
16781;DHT22;8507;50.056;8.248;2023-03-16T15:29:22;13.40;99.90
16781;DHT22;8507;50.056;8.248;2023-03-16T15:31:48;13.10;99.90
16781;DHT22;8507;50.056;8.248;2023-03-16T15:34:14;13.20;99.90
16781;DHT22;8507;50.056;8.248;2023-03-16T15:36:40;13.20;99.90
16781;DHT22;8507;50.056;8.248;2023-03-16T15:39:20;13.30;99.90
16781;DHT22;8507;50.056;8.248;2023-03-16T15:41:46;13.30;99.90
16781;DHT22;8507;50.056;8.248;2023-03-16T15:44:12;13.30;99.90
16781;DHT22;8507;50.056;8.248;2023-03-16T15:46:37;13.30;99.90
16781;DHT22;8507;50.056;8.248;2023-03-16T15:49:03;13.20;99.90
16781;DHT22;8507;50.056;8.248;2023-03-16T15:51:29;13.10;99.90
16781;DHT22;8507;50.056;8.248;2023-03-16T15:53:57;13.00;99.90
16781;DHT22;8507;50.056;8.248;2023-03-16T15:56:26;13.00;99.90
16781;DHT22;8507;50.056;8.248;2023-03-16T15:58:59;13.00;99.90
16781;DHT22;8507;50.056;8.248;2023-03-16T16:01:27;12.90;99.90
16781;DHT22;8507;50.056;8.248;2023-03-16T16:04:00;12.80;99.90
16781;DHT22;8507;50.056;8.248;2023-03-16T16:06:25;12.70;99.90
16781;DHT22;8507;50.056;8.248;2023-03-16T16:08:53;12.60;99.90
16781;DHT22;8507;50.056;8.248;2023-03-16T16:11:28;12.50;99.90
16781;DHT22;8507;50.056;8.248;2023-03-16T16:13:55;12.50;99.90
16781;DHT22;8507;50.056;8.248;2023-03-16T16:16:21;12.40;99.90
16781;DHT22;8507;50.056;8.248;2023-03-16T16:18:47;12.30;99.90
16781;DHT22;8507;50.056;8.248;2023-03-16T16:21:22;12.20;99.90
16781;DHT22;8507;50.056;8.248;2023-03-16T16:23:53;12.20;99.90
16781;DHT22;8507;50.056;8.248;2023-03-16T16:29:00;12.00;99.90
16781;DHT22;8507;50.056;8.248;2023-03-16T16:31:30;12.00;99.90
16781;DHT22;8507;50.056;8.248;2023-03-16T16:33:56;12.00;99.90
16781;DHT22;8507;50.056;8.248;2023-03-16T16:36:23;11.90;99.90
16781;DHT22;8507;50.056;8.248;2023-03-16T16:38:49;11.90;99.90
16781;DHT22;8507;50.056;8.248;2023-03-16T16:41:27;11.80;99.90
16781;DHT22;8507;50.056;8.248;2023-03-16T16:43:54;11.70;99.90
16781;DHT22;8507;50.056;8.248;2023-03-16T16:46:23;11.70;99.90
16781;DHT22;8507;50.056;8.248;2023-03-16T16:48:52;11.60;99.90
16781;DHT22;8507;50.056;8.248;2023-03-16T16:51:23;11.50;99.90
16781;DHT22;8507;50.056;8.248;2023-03-16T16:53:51;11.40;99.90
16781;DHT22;8507;50.056;8.248;2023-03-16T16:56:21;11.40;99.90
16781;DHT22;8507;50.056;8.248;2023-03-16T16:58:49;11.30;99.90
16781;DHT22;8507;50.056;8.248;2023-03-16T17:01:26;11.20;99.90
16781;DHT22;8507;50.056;8.248;2023-03-16T17:03:52;11.20;99.90
16781;DHT22;8507;50.056;8.248;2023-03-16T17:06:19;11.10;99.90
16781;DHT22;8507;50.056;8.248;2023-03-16T17:08:45;11.00;99.90
16781;DHT22;8507;50.056;8.248;2023-03-16T17:11:20;10.90;99.90
16781;DHT22;8507;50.056;8.248;2023-03-16T17:13:47;10.80;99.90
16781;DHT22;8507;50.056;8.248;2023-03-16T17:16:15;10.70;99.90